sensor_id;sensor_type;location;lat;lon;timestamp;pressure;altitude;pressure_sealevel;temperature;humidity
58467;BME280;44255;49.244;7.726;2023-02-23T04:32:21;97924.81;;;7.32;63.18
58467;BME280;44255;49.244;7.726;2023-02-23T04:34:46;97929.00;;;7.36;64.28
58467;BME280;44255;49.244;7.726;2023-02-23T04:37:12;97937.22;;;6.75;64.86
58467;BME280;44255;49.244;7.726;2023-02-23T04:39:37;97933.97;;;7.14;64.30
58467;BME280;44255;49.244;7.726;2023-02-23T04:42:03;97938.22;;;7.32;63.04
58467;BME280;44255;49.244;7.726;2023-02-23T04:44:28;97934.25;;;7.38;63.13
58467;BME280;44255;49.244;7.726;2023-02-23T04:46:55;97929.56;;;7.98;60.93
58467;BME280;44255;49.244;7.726;2023-02-23T04:49:21;97930.25;;;7.87;61.33
58467;BME280;44255;49.244;7.726;2023-02-23T04:51:47;97943.19;;;7.81;61.47
58467;BME280;44255;49.244;7.726;2023-02-23T04:54:12;97938.53;;;7.70;62.07
58467;BME280;44255;49.244;7.726;2023-02-23T04:56:37;97937.59;;;7.42;62.04
58467;BME280;44255;49.244;7.726;2023-02-23T04:59:03;97938.06;;;7.63;61.68
58467;BME280;44255;49.244;7.726;2023-02-23T05:01:28;97937.09;;;8.06;60.60
58467;BME280;44255;49.244;7.726;2023-02-23T05:03:54;97944.91;;;7.82;61.05
58467;BME280;44255;49.244;7.726;2023-02-23T05:06:20;97935.38;;;8.05;60.33
58467;BME280;44255;49.244;7.726;2023-02-23T05:08:45;97935.50;;;8.16;60.15
58467;BME280;44255;49.244;7.726;2023-02-23T05:11:11;97939.91;;;8.17;60.23
58467;BME280;44255;49.244;7.726;2023-02-23T05:13:36;97933.13;;;8.39;59.76
58467;BME280;44255;49.244;7.726;2023-02-23T05:16:02;97931.03;;;7.75;60.96
58467;BME280;44255;49.244;7.726;2023-02-23T05:18:27;97927.06;;;8.23;59.70
58467;BME280;44255;49.244;7.726;2023-02-23T05:20:53;97925.81;;;8.41;59.26
58467;BME280;44255;49.244;7.726;2023-02-23T05:23:25;97929.25;;;8.30;59.15
58467;BME280;44255;49.244;7.726;2023-02-23T05:25:50;97924.63;;;8.32;59.44
58467;BME280;44255;49.244;7.726;2023-02-23T05:28:16;97925.06;;;8.39;58.94
58467;BME280;44255;49.244;7.726;2023-02-23T05:30:41;97924.44;;;8.48;58.97
58467;BME280;44255;49.244;7.726;2023-02-23T05:33:06;97927.31;;;8.32;59.02
58467;BME280;44255;49.244;7.726;2023-02-23T05:35:31;97924.72;;;8.31;58.83
58467;BME280;44255;49.244;7.726;2023-02-23T05:37:56;97917.41;;;8.20;59.43
58467;BME280;44255;49.244;7.726;2023-02-23T05:40:22;97929.31;;;8.16;59.22
58467;BME280;44255;49.244;7.726;2023-02-23T05:42:47;97924.16;;;8.13;59.37
58467;BME280;44255;49.244;7.726;2023-02-23T05:45:12;97924.94;;;8.00;59.27
58467;BME280;44255;49.244;7.726;2023-02-23T05:47:38;97929.50;;;7.85;59.31
58467;BME280;44255;49.244;7.726;2023-02-23T05:50:05;97937.41;;;8.01;59.40
58467;BME280;44255;49.244;7.726;2023-02-23T05:52:31;97925.88;;;8.14;58.67
58467;BME280;44255;49.244;7.726;2023-02-23T05:54:56;97928.06;;;7.94;59.13
58467;BME280;44255;49.244;7.726;2023-02-23T05:57:21;97923.53;;;7.95;58.90
58467;BME280;44255;49.244;7.726;2023-02-23T05:59:47;97927.72;;;7.99;58.57
58467;BME280;44255;49.244;7.726;2023-02-23T06:02:12;97924.75;;;8.03;58.88
58467;BME280;44255;49.244;7.726;2023-02-23T06:04:38;97931.06;;;8.02;58.75
58467;BME280;44255;49.244;7.726;2023-02-23T06:07:03;97938.78;;;7.94;59.32
58467;BME280;44255;49.244;7.726;2023-02-23T06:09:28;97940.84;;;8.03;59.07
58467;BME280;44255;49.244;7.726;2023-02-23T06:11:53;97945.03;;;8.07;59.06
58467;BME280;44255;49.244;7.726;2023-02-23T06:14:19;97942.97;;;7.98;59.13
58467;BME280;44255;49.244;7.726;2023-02-23T06:16:44;97938.38;;;7.86;59.31
58467;BME280;44255;49.244;7.726;2023-02-23T06:19:12;97947.50;;;7.27;61.06
58467;BME280;44255;49.244;7.726;2023-02-23T06:21:37;97945.66;;;7.84;59.48
58467;BME280;44255;49.244;7.726;2023-02-23T06:24:02;97952.00;;;7.83;59.42
58467;BME280;44255;49.244;7.726;2023-02-23T06:26:28;97951.53;;;7.76;59.85
58467;BME280;44255;49.244;7.726;2023-02-23T06:28:54;97957.28;;;7.84;59.30
58467;BME280;44255;49.244;7.726;2023-02-23T06:31:19;97950.47;;;7.78;59.44
58467;BME280;44255;49.244;7.726;2023-02-23T06:33:44;97952.75;;;7.85;59.56
58467;BME280;44255;49.244;7.726;2023-02-23T06:36:10;97963.41;;;8.01;58.96
58467;BME280;44255;49.244;7.726;2023-02-23T06:38:35;97963.91;;;7.78;59.37
58467;BME280;44255;49.244;7.726;2023-02-23T06:41:09;97960.81;;;7.85;59.22
58467;BME280;44255;49.244;7.726;2023-02-23T06:43:34;97968.84;;;7.85;59.60
58467;BME280;44255;49.244;7.726;2023-02-23T06:46:00;97971.75;;;7.67;59.68
58467;BME280;44255;49.244;7.726;2023-02-23T06:48:25;97973.09;;;7.89;59.12
58467;BME280;44255;49.244;7.726;2023-02-23T06:50:51;97977.78;;;7.85;59.56
58467;BME280;44255;49.244;7.726;2023-02-23T06:53:16;97976.72;;;7.73;59.77
58467;BME280;44255;49.244;7.726;2023-02-23T06:55:42;97982.25;;;7.85;59.41
58467;BME280;44255;49.244;7.726;2023-02-23T06:58:07;97988.03;;;7.93;59.30
58467;BME280;44255;49.244;7.726;2023-02-23T07:00:33;97988.22;;;7.90;59.48
58467;BME280;44255;49.244;7.726;2023-02-23T07:02:58;97990.88;;;8.04;59.06
58467;BME280;44255;49.244;7.726;2023-02-23T07:05:24;97991.50;;;7.95;59.37
58467;BME280;44255;49.244;7.726;2023-02-23T07:07:50;97994.38;;;7.92;59.25
58467;BME280;44255;49.244;7.726;2023-02-23T07:10:16;97992.44;;;7.94;59.23
58467;BME280;44255;49.244;7.726;2023-02-23T07:12:42;97992.38;;;8.09;58.89
58467;BME280;44255;49.244;7.726;2023-02-23T07:15:07;97996.34;;;7.88;59.22
58467;BME280;44255;49.244;7.726;2023-02-23T07:17:34;97999.13;;;8.01;59.05
58467;BME280;44255;49.244;7.726;2023-02-23T07:19:59;98001.47;;;7.93;59.27
58467;BME280;44255;49.244;7.726;2023-02-23T07:22:24;98003.75;;;7.70;60.14
58467;BME280;44255;49.244;7.726;2023-02-23T07:24:53;98002.41;;;7.92;59.56
58467;BME280;44255;49.244;7.726;2023-02-23T07:27:18;98007.19;;;8.01;59.35
58467;BME280;44255;49.244;7.726;2023-02-23T07:29:43;98004.88;;;8.10;59.25
58467;BME280;44255;49.244;7.726;2023-02-23T07:32:09;98013.75;;;8.10;59.00
58467;BME280;44255;49.244;7.726;2023-02-23T07:34:34;98005.91;;;8.07;59.12
58467;BME280;44255;49.244;7.726;2023-02-23T07:37:01;98005.25;;;8.03;59.28
58467;BME280;44255;49.244;7.726;2023-02-23T07:39:26;98012.00;;;8.24;59.02
58467;BME280;44255;49.244;7.726;2023-02-23T07:41:51;98009.03;;;8.28;58.58
58467;BME280;44255;49.244;7.726;2023-02-23T07:44:17;98012.03;;;8.09;59.32
58467;BME280;44255;49.244;7.726;2023-02-23T07:46:42;98009.63;;;8.19;59.22
58467;BME280;44255;49.244;7.726;2023-02-23T07:49:08;98014.06;;;8.33;58.47
58467;BME280;44255;49.244;7.726;2023-02-23T07:51:34;98014.41;;;8.28;58.29
58467;BME280;44255;49.244;7.726;2023-02-23T07:54:03;98016.41;;;8.52;58.20
58467;BME280;44255;49.244;7.726;2023-02-23T07:56:29;98011.47;;;8.59;58.24
58467;BME280;44255;49.244;7.726;2023-02-23T07:58:54;98009.16;;;8.40;57.86
58467;BME280;44255;49.244;7.726;2023-02-23T08:01:19;98013.66;;;8.67;57.48
58467;BME280;44255;49.244;7.726;2023-02-23T08:03:44;98011.00;;;8.80;57.02
58467;BME280;44255;49.244;7.726;2023-02-23T08:06:14;98015.09;;;8.85;57.08
58467;BME280;44255;49.244;7.726;2023-02-23T08:08:40;98010.69;;;8.84;57.43
58467;BME280;44255;49.244;7.726;2023-02-23T08:11:05;98020.59;;;8.97;56.30
58467;BME280;44255;49.244;7.726;2023-02-23T08:13:30;98019.09;;;8.52;57.08
58467;BME280;44255;49.244;7.726;2023-02-23T08:15:56;98020.03;;;7.96;56.63
58467;BME280;44255;49.244;7.726;2023-02-23T08:18:22;98019.56;;;7.89;56.67
58467;BME280;44255;49.244;7.726;2023-02-23T08:20:48;98021.97;;;7.94;56.60
58467;BME280;44255;49.244;7.726;2023-02-23T08:23:13;98029.91;;;7.67;57.15
58467;BME280;44255;49.244;7.726;2023-02-23T08:25:38;98025.56;;;8.07;56.48
58467;BME280;44255;49.244;7.726;2023-02-23T08:28:04;98033.84;;;7.75;57.59
58467;BME280;44255;49.244;7.726;2023-02-23T08:30:31;98034.22;;;7.98;56.83
58467;BME280;44255;49.244;7.726;2023-02-23T08:32:57;98032.28;;;8.42;55.31
58467;BME280;44255;49.244;7.726;2023-02-23T08:35:22;98033.72;;;8.06;56.59
58467;BME280;44255;49.244;7.726;2023-02-23T08:37:47;98039.00;;;7.64;57.11
58467;BME280;44255;49.244;7.726;2023-02-23T08:40:13;98038.25;;;7.76;57.84
58467;BME280;44255;49.244;7.726;2023-02-23T08:42:43;98046.47;;;7.44;58.03
58467;BME280;44255;49.244;7.726;2023-02-23T08:45:10;98041.88;;;7.32;58.70
58467;BME280;44255;49.244;7.726;2023-02-23T08:47:35;98055.25;;;6.56;61.12
58467;BME280;44255;49.244;7.726;2023-02-23T08:50:01;98047.91;;;7.64;58.36
58467;BME280;44255;49.244;7.726;2023-02-23T08:52:26;98043.97;;;7.12;58.72
58467;BME280;44255;49.244;7.726;2023-02-23T08:54:52;98053.69;;;6.99;58.89
58467;BME280;44255;49.244;7.726;2023-02-23T08:57:18;98047.13;;;6.88;59.26
58467;BME280;44255;49.244;7.726;2023-02-23T08:59:43;98043.50;;;7.78;57.05
58467;BME280;44255;49.244;7.726;2023-02-23T09:02:11;98037.84;;;8.12;55.83
58467;BME280;44255;49.244;7.726;2023-02-23T09:04:37;98038.81;;;7.67;57.19
58467;BME280;44255;49.244;7.726;2023-02-23T09:07:06;98049.81;;;6.88;58.57
58467;BME280;44255;49.244;7.726;2023-02-23T09:09:32;98050.09;;;7.29;58.43
58467;BME280;44255;49.244;7.726;2023-02-23T09:11:58;98039.47;;;8.00;55.98
58467;BME280;44255;49.244;7.726;2023-02-23T09:14:24;98037.25;;;8.06;55.79
58467;BME280;44255;49.244;7.726;2023-02-23T09:16:49;98042.38;;;8.24;55.34
58467;BME280;44255;49.244;7.726;2023-02-23T09:19:14;98046.19;;;7.78;56.59
58467;BME280;44255;49.244;7.726;2023-02-23T09:21:39;98050.13;;;7.58;56.79
58467;BME280;44255;49.244;7.726;2023-02-23T09:24:05;98043.38;;;8.09;56.02
58467;BME280;44255;49.244;7.726;2023-02-23T09:26:31;98050.44;;;8.24;54.89
58467;BME280;44255;49.244;7.726;2023-02-23T09:28:59;98059.00;;;7.29;57.47
58467;BME280;44255;49.244;7.726;2023-02-23T09:31:25;98049.66;;;7.51;56.71
58467;BME280;44255;49.244;7.726;2023-02-23T09:33:51;98054.69;;;7.85;56.12
58467;BME280;44255;49.244;7.726;2023-02-23T09:36:21;98056.91;;;7.78;56.52
58467;BME280;44255;49.244;7.726;2023-02-23T09:38:49;98057.41;;;7.99;55.37
58467;BME280;44255;49.244;7.726;2023-02-23T09:44:28;98065.97;;;8.33;55.10
58467;BME280;44255;49.244;7.726;2023-02-23T09:47:12;98073.03;;;8.34;55.03
58467;BME280;44255;49.244;7.726;2023-02-23T09:49:44;98073.00;;;8.76;53.85
58467;BME280;44255;49.244;7.726;2023-02-23T09:52:20;98072.22;;;8.19;54.87
58467;BME280;44255;49.244;7.726;2023-02-23T09:54:47;98072.31;;;8.18;54.59
58467;BME280;44255;49.244;7.726;2023-02-23T09:57:16;98077.88;;;7.71;55.89
58467;BME280;44255;49.244;7.726;2023-02-23T09:59:42;98081.25;;;7.75;56.11
58467;BME280;44255;49.244;7.726;2023-02-23T10:02:36;98077.16;;;8.40;54.85
58467;BME280;44255;49.244;7.726;2023-02-23T10:05:06;98072.69;;;8.81;53.29
58467;BME280;44255;49.244;7.726;2023-02-23T10:07:36;98085.28;;;7.97;55.41
58467;BME280;44255;49.244;7.726;2023-02-23T10:10:20;98080.25;;;8.89;53.90
58467;BME280;44255;49.244;7.726;2023-02-23T10:13:03;98073.56;;;9.22;53.83
58467;BME280;44255;49.244;7.726;2023-02-23T10:15:43;98081.53;;;9.49;53.26
58467;BME280;44255;49.244;7.726;2023-02-23T10:23:30;98075.19;;;9.63;53.06
58467;BME280;44255;49.244;7.726;2023-02-23T10:25:59;98075.91;;;9.78;52.59
58467;BME280;44255;49.244;7.726;2023-02-23T10:28:26;98071.84;;;9.60;53.18
58467;BME280;44255;49.244;7.726;2023-02-23T10:30:53;98072.59;;;9.75;52.87
58467;BME280;44255;49.244;7.726;2023-02-23T10:33:24;98076.38;;;9.72;52.69
58467;BME280;44255;49.244;7.726;2023-02-23T10:35:56;98078.50;;;9.80;52.61
58467;BME280;44255;49.244;7.726;2023-02-23T10:38:24;98081.94;;;9.82;52.47
58467;BME280;44255;49.244;7.726;2023-02-23T10:40:53;98082.06;;;9.94;52.36
58467;BME280;44255;49.244;7.726;2023-02-23T10:43:19;98079.59;;;10.03;51.91
58467;BME280;44255;49.244;7.726;2023-02-23T10:45:47;98088.94;;;9.98;51.54
58467;BME280;44255;49.244;7.726;2023-02-23T10:48:17;98080.94;;;9.96;51.63
58467;BME280;44255;49.244;7.726;2023-02-23T10:50:44;98073.84;;;9.95;50.69
58467;BME280;44255;49.244;7.726;2023-02-23T10:53:17;98082.78;;;10.09;50.96
58467;BME280;44255;49.244;7.726;2023-02-23T10:55:45;98076.84;;;10.16;51.39
58467;BME280;44255;49.244;7.726;2023-02-23T10:58:16;98073.31;;;10.16;51.58
58467;BME280;44255;49.244;7.726;2023-02-23T11:00:52;98076.94;;;10.28;51.72
58467;BME280;44255;49.244;7.726;2023-02-23T11:03:31;98071.66;;;10.26;51.62
58467;BME280;44255;49.244;7.726;2023-02-23T11:05:57;98074.56;;;10.23;51.14
58467;BME280;44255;49.244;7.726;2023-02-23T11:08:26;98080.22;;;10.07;51.57
58467;BME280;44255;49.244;7.726;2023-02-23T11:13:42;98075.19;;;10.40;50.52
58467;BME280;44255;49.244;7.726;2023-02-23T11:16:11;98073.19;;;10.17;51.06
58467;BME280;44255;49.244;7.726;2023-02-23T11:18:43;98075.00;;;10.30;50.39
58467;BME280;44255;49.244;7.726;2023-02-23T11:21:19;98071.91;;;10.47;50.10
58467;BME280;44255;49.244;7.726;2023-02-23T11:23:49;98065.06;;;10.06;50.57
58467;BME280;44255;49.244;7.726;2023-02-23T11:26:25;98071.22;;;10.32;50.20
58467;BME280;44255;49.244;7.726;2023-02-23T11:28:56;98066.03;;;10.29;50.67
58467;BME280;44255;49.244;7.726;2023-02-23T11:31:29;98061.41;;;10.31;50.45
58467;BME280;44255;49.244;7.726;2023-02-23T11:33:56;98063.91;;;10.59;49.62
58467;BME280;44255;49.244;7.726;2023-02-23T11:36:28;98061.19;;;10.34;49.88
58467;BME280;44255;49.244;7.726;2023-02-23T11:39:26;98054.28;;;10.43;50.10
58467;BME280;44255;49.244;7.726;2023-02-23T11:42:12;98054.13;;;10.45;49.69
58467;BME280;44255;49.244;7.726;2023-02-23T11:44:39;98045.31;;;10.67;49.24
58467;BME280;44255;49.244;7.726;2023-02-23T11:47:05;98048.06;;;10.54;50.13
58467;BME280;44255;49.244;7.726;2023-02-23T11:49:36;98044.47;;;10.67;49.21
58467;BME280;44255;49.244;7.726;2023-02-23T11:52:12;98049.94;;;10.16;50.01
58467;BME280;44255;49.244;7.726;2023-02-23T11:54:50;98040.19;;;10.02;50.78
58467;BME280;44255;49.244;7.726;2023-02-23T11:57:21;98039.22;;;10.03;50.08
58467;BME280;44255;49.244;7.726;2023-02-23T11:59:48;98036.91;;;10.47;49.92
58467;BME280;44255;49.244;7.726;2023-02-23T12:02:20;98037.13;;;10.20;49.83
58467;BME280;44255;49.244;7.726;2023-02-23T12:04:48;98039.69;;;9.58;51.02
58467;BME280;44255;49.244;7.726;2023-02-23T12:07:35;98039.69;;;9.32;52.00
58467;BME280;44255;49.244;7.726;2023-02-23T12:10:21;98038.16;;;9.41;52.09
58467;BME280;44255;49.244;7.726;2023-02-23T12:21:29;98028.72;;;9.48;51.64
58467;BME280;44255;49.244;7.726;2023-02-23T12:26:59;98024.84;;;9.40;51.36
58467;BME280;44255;49.244;7.726;2023-02-23T12:29:57;98028.31;;;10.05;50.16
58467;BME280;44255;49.244;7.726;2023-02-23T12:32:28;98026.72;;;9.76;50.96
58467;BME280;44255;49.244;7.726;2023-02-23T12:35:05;98025.28;;;9.97;50.92
58467;BME280;44255;49.244;7.726;2023-02-23T12:37:38;98025.41;;;8.91;53.41
58467;BME280;44255;49.244;7.726;2023-02-23T12:43:04;98020.84;;;9.45;51.91
58467;BME280;44255;49.244;7.726;2023-02-23T12:45:41;98024.72;;;9.28;52.32
58467;BME280;44255;49.244;7.726;2023-02-23T12:48:49;98024.50;;;9.44;51.85
58467;BME280;44255;49.244;7.726;2023-02-23T12:54:08;98022.72;;;8.91;52.15
58467;BME280;44255;49.244;7.726;2023-02-23T12:56:49;98017.22;;;9.46;51.32
58467;BME280;44255;49.244;7.726;2023-02-23T12:59:36;98004.69;;;9.71;51.36
58467;BME280;44255;49.244;7.726;2023-02-23T13:02:16;98014.94;;;9.14;51.69
58467;BME280;44255;49.244;7.726;2023-02-23T13:04:49;98014.44;;;9.85;50.72
58467;BME280;44255;49.244;7.726;2023-02-23T13:11:00;98018.03;;;9.08;51.17
58467;BME280;44255;49.244;7.726;2023-02-23T13:13:37;98003.84;;;9.58;50.52
58467;BME280;44255;49.244;7.726;2023-02-23T13:16:18;98003.75;;;10.10;49.79
58467;BME280;44255;49.244;7.726;2023-02-23T13:24:09;98010.75;;;9.23;51.71
58467;BME280;44255;49.244;7.726;2023-02-23T13:26:47;98017.28;;;9.06;52.09
58467;BME280;44255;49.244;7.726;2023-02-23T13:29:34;98020.72;;;9.08;52.71
58467;BME280;44255;49.244;7.726;2023-02-23T13:32:02;98014.63;;;9.45;50.49
58467;BME280;44255;49.244;7.726;2023-02-23T13:34:38;98012.22;;;9.66;50.47
58467;BME280;44255;49.244;7.726;2023-02-23T13:37:06;98010.56;;;10.02;50.30
58467;BME280;44255;49.244;7.726;2023-02-23T13:42:26;98010.00;;;9.21;51.24
58467;BME280;44255;49.244;7.726;2023-02-23T13:47:53;98009.97;;;9.60;50.89
58467;BME280;44255;49.244;7.726;2023-02-23T13:50:35;98002.38;;;9.41;51.17
58467;BME280;44255;49.244;7.726;2023-02-23T13:53:06;97998.84;;;9.90;50.12
58467;BME280;44255;49.244;7.726;2023-02-23T13:55:36;98001.34;;;9.81;49.93
58467;BME280;44255;49.244;7.726;2023-02-23T13:58:13;97993.63;;;10.38;49.05
58467;BME280;44255;49.244;7.726;2023-02-23T14:00:39;97995.41;;;10.50;49.54
58467;BME280;44255;49.244;7.726;2023-02-23T14:03:06;97996.38;;;10.25;49.63
58467;BME280;44255;49.244;7.726;2023-02-23T14:05:41;98001.06;;;10.58;48.64
58467;BME280;44255;49.244;7.726;2023-02-23T14:08:21;98003.25;;;10.53;48.45
58467;BME280;44255;49.244;7.726;2023-02-23T14:10:48;97998.53;;;10.68;47.89
58467;BME280;44255;49.244;7.726;2023-02-23T14:16:13;97988.69;;;10.91;47.52
58467;BME280;44255;49.244;7.726;2023-02-23T14:18:34;97984.28;;;10.30;48.45
58467;BME280;44255;49.244;7.726;2023-02-23T14:24:34;97988.81;;;9.55;50.04
58467;BME280;44255;49.244;7.726;2023-02-23T14:34:59;97990.28;;;10.34;49.10
58467;BME280;44255;49.244;7.726;2023-02-23T14:37:35;97991.25;;;10.57;48.17
58467;BME280;44255;49.244;7.726;2023-02-23T14:40:38;97991.75;;;9.89;49.87
58467;BME280;44255;49.244;7.726;2023-02-23T14:43:03;97990.53;;;10.07;48.94
58467;BME280;44255;49.244;7.726;2023-02-23T14:45:53;97990.03;;;10.61;48.32
58467;BME280;44255;49.244;7.726;2023-02-23T14:48:19;97994.25;;;10.17;49.11
58467;BME280;44255;49.244;7.726;2023-02-23T14:50:47;97992.28;;;10.68;48.24
58467;BME280;44255;49.244;7.726;2023-02-23T14:53:21;97988.31;;;10.60;49.05
58467;BME280;44255;49.244;7.726;2023-02-23T14:55:47;97988.47;;;10.70;48.76
58467;BME280;44255;49.244;7.726;2023-02-23T14:58:24;97985.56;;;10.38;49.14
58467;BME280;44255;49.244;7.726;2023-02-23T15:00:50;97989.13;;;10.74;48.79
58467;BME280;44255;49.244;7.726;2023-02-23T15:03:16;97987.91;;;10.78;49.50
58467;BME280;44255;49.244;7.726;2023-02-23T15:05:49;97985.78;;;10.70;49.17
58467;BME280;44255;49.244;7.726;2023-02-23T15:08:20;97987.94;;;10.89;49.27
58467;BME280;44255;49.244;7.726;2023-02-23T15:10:49;97986.63;;;10.35;50.87
58467;BME280;44255;49.244;7.726;2023-02-23T15:13:29;97992.78;;;10.73;50.39
58467;BME280;44255;49.244;7.726;2023-02-23T15:15:56;97991.63;;;10.88;50.25
58467;BME280;44255;49.244;7.726;2023-02-23T15:18:28;97987.44;;;10.84;50.01
58467;BME280;44255;49.244;7.726;2023-02-23T15:20:54;97986.47;;;10.97;50.05
58467;BME280;44255;49.244;7.726;2023-02-23T15:23:20;97993.25;;;11.02;49.83
58467;BME280;44255;49.244;7.726;2023-02-23T15:25:46;97984.59;;;11.10;49.42
58467;BME280;44255;49.244;7.726;2023-02-23T15:28:25;97983.34;;;11.03;49.86
58467;BME280;44255;49.244;7.726;2023-02-23T15:30:53;97989.03;;;11.23;48.59
58467;BME280;44255;49.244;7.726;2023-02-23T15:33:20;97984.00;;;11.29;48.81
58467;BME280;44255;49.244;7.726;2023-02-23T15:36:06;97983.75;;;11.55;48.42
58467;BME280;44255;49.244;7.726;2023-02-23T15:38:53;97980.69;;;11.94;48.09
58467;BME280;44255;49.244;7.726;2023-02-23T15:41:32;97971.34;;;12.42;47.34
58467;BME280;44255;49.244;7.726;2023-02-23T15:46:44;97974.84;;;12.22;46.46
58467;BME280;44255;49.244;7.726;2023-02-23T15:49:12;97974.66;;;12.13;46.87
58467;BME280;44255;49.244;7.726;2023-02-23T15:51:47;97972.84;;;12.35;45.39
58467;BME280;44255;49.244;7.726;2023-02-23T15:54:27;97976.31;;;12.80;45.45
58467;BME280;44255;49.244;7.726;2023-02-23T15:56:55;97967.75;;;12.09;46.12
58467;BME280;44255;49.244;7.726;2023-02-23T15:59:30;97973.56;;;12.04;46.58
58467;BME280;44255;49.244;7.726;2023-02-23T16:01:59;97981.03;;;11.10;48.86
58467;BME280;44255;49.244;7.726;2023-02-23T16:04:30;97985.50;;;10.86;49.37
58467;BME280;44255;49.244;7.726;2023-02-23T16:07:14;97985.13;;;10.55;50.28
58467;BME280;44255;49.244;7.726;2023-02-23T16:09:47;97986.81;;;11.51;47.97
58467;BME280;44255;49.244;7.726;2023-02-23T16:12:17;97988.53;;;11.63;48.09
58467;BME280;44255;49.244;7.726;2023-02-23T16:14:48;97985.97;;;11.39;48.31
58467;BME280;44255;49.244;7.726;2023-02-23T16:17:23;97981.66;;;11.47;48.42
58467;BME280;44255;49.244;7.726;2023-02-23T16:19:50;97983.28;;;11.61;47.70
58467;BME280;44255;49.244;7.726;2023-02-23T16:22:24;97982.66;;;11.46;47.44
58467;BME280;44255;49.244;7.726;2023-02-23T16:24:58;97985.09;;;11.27;48.06
58467;BME280;44255;49.244;7.726;2023-02-23T16:27:27;97988.44;;;10.95;48.74
58467;BME280;44255;49.244;7.726;2023-02-23T16:29:58;97992.97;;;10.94;48.98
58467;BME280;44255;49.244;7.726;2023-02-23T16:32:37;97993.28;;;10.78;49.17
58467;BME280;44255;49.244;7.726;2023-02-23T16:35:22;97994.19;;;10.05;51.53
58467;BME280;44255;49.244;7.726;2023-02-23T16:37:59;97997.38;;;10.11;51.09
58467;BME280;44255;49.244;7.726;2023-02-23T16:40:25;97998.06;;;9.88;51.90
58467;BME280;44255;49.244;7.726;2023-02-23T16:42:51;97988.91;;;9.91;51.98
58467;BME280;44255;49.244;7.726;2023-02-23T16:45:16;97990.47;;;9.69;52.57
58467;BME280;44255;49.244;7.726;2023-02-23T16:47:44;97999.50;;;9.81;52.21
58467;BME280;44255;49.244;7.726;2023-02-23T16:50:17;98002.44;;;9.65;52.36
58467;BME280;44255;49.244;7.726;2023-02-23T16:52:44;98001.59;;;9.52;52.61
58467;BME280;44255;49.244;7.726;2023-02-23T16:55:13;98000.19;;;9.59;52.04
58467;BME280;44255;49.244;7.726;2023-02-23T16:57:44;98005.47;;;9.47;52.44
58467;BME280;44255;49.244;7.726;2023-02-23T17:00:13;98010.22;;;9.44;52.63
58467;BME280;44255;49.244;7.726;2023-02-23T17:02:43;98014.59;;;9.19;52.82
58467;BME280;44255;49.244;7.726;2023-02-23T17:05:13;98006.56;;;9.32;52.58
58467;BME280;44255;49.244;7.726;2023-02-23T17:07:40;98013.09;;;9.28;52.73
58467;BME280;44255;49.244;7.726;2023-02-23T17:10:07;98013.53;;;9.22;52.75
58467;BME280;44255;49.244;7.726;2023-02-23T17:12:33;98012.69;;;9.34;52.71
58467;BME280;44255;49.244;7.726;2023-02-23T17:14:58;98010.22;;;9.31;52.87
58467;BME280;44255;49.244;7.726;2023-02-23T17:17:24;98008.28;;;9.33;52.60
58467;BME280;44255;49.244;7.726;2023-02-23T17:19:49;98008.28;;;9.33;52.42
58467;BME280;44255;49.244;7.726;2023-02-23T17:22:14;98014.06;;;9.27;53.06
58467;BME280;44255;49.244;7.726;2023-02-23T17:24:41;98013.97;;;9.15;53.16
58467;BME280;44255;49.244;7.726;2023-02-23T17:27:06;98024.72;;;9.15;53.45
58467;BME280;44255;49.244;7.726;2023-02-23T17:29:32;98016.53;;;9.04;53.91
58467;BME280;44255;49.244;7.726;2023-02-23T17:31:57;98022.66;;;9.06;53.60
58467;BME280;44255;49.244;7.726;2023-02-23T17:34:24;98028.38;;;9.14;53.54
58467;BME280;44255;49.244;7.726;2023-02-23T17:36:50;98028.56;;;9.11;53.31
58467;BME280;44255;49.244;7.726;2023-02-23T17:39:16;98023.31;;;9.10;53.56
58467;BME280;44255;49.244;7.726;2023-02-23T17:41:41;98024.59;;;9.04;53.61
58467;BME280;44255;49.244;7.726;2023-02-23T17:44:07;98025.25;;;9.08;53.08
58467;BME280;44255;49.244;7.726;2023-02-23T17:46:32;98031.81;;;9.16;52.95
58467;BME280;44255;49.244;7.726;2023-02-23T17:48:57;98018.91;;;9.09;52.98
58467;BME280;44255;49.244;7.726;2023-02-23T17:51:23;98021.69;;;9.07;53.10
58467;BME280;44255;49.244;7.726;2023-02-23T17:53:48;98022.88;;;9.03;53.18
58467;BME280;44255;49.244;7.726;2023-02-23T17:56:13;98017.59;;;9.01;52.99
58467;BME280;44255;49.244;7.726;2023-02-23T17:58:40;98025.31;;;8.93;53.50
58467;BME280;44255;49.244;7.726;2023-02-23T18:01:06;98026.28;;;8.92;53.61
58467;BME280;44255;49.244;7.726;2023-02-23T18:03:33;98024.88;;;8.86;54.10
58467;BME280;44255;49.244;7.726;2023-02-23T18:06:10;98025.84;;;8.85;53.87
58467;BME280;44255;49.244;7.726;2023-02-23T18:08:36;98020.56;;;8.84;53.75
58467;BME280;44255;49.244;7.726;2023-02-23T18:11:02;98027.03;;;8.81;53.81
58467;BME280;44255;49.244;7.726;2023-02-23T18:13:28;98015.16;;;8.71;54.15
58467;BME280;44255;49.244;7.726;2023-02-23T18:15:58;98023.13;;;8.72;54.17
58467;BME280;44255;49.244;7.726;2023-02-23T18:18:24;98025.91;;;8.71;54.24
58467;BME280;44255;49.244;7.726;2023-02-23T18:20:52;98019.47;;;8.73;53.99
58467;BME280;44255;49.244;7.726;2023-02-23T18:23:18;98021.59;;;8.68;54.41
58467;BME280;44255;49.244;7.726;2023-02-23T18:25:43;98028.94;;;8.79;53.85
58467;BME280;44255;49.244;7.726;2023-02-23T18:28:09;98026.44;;;8.76;53.92
58467;BME280;44255;49.244;7.726;2023-02-23T18:30:35;98022.78;;;8.77;54.12
58467;BME280;44255;49.244;7.726;2023-02-23T18:33:02;98021.59;;;8.68;53.88
58467;BME280;44255;49.244;7.726;2023-02-23T18:35:36;98021.16;;;8.61;54.25
58467;BME280;44255;49.244;7.726;2023-02-23T18:38:03;98025.06;;;8.70;53.75
58467;BME280;44255;49.244;7.726;2023-02-23T18:40:28;98024.09;;;8.71;54.11
58467;BME280;44255;49.244;7.726;2023-02-23T18:42:55;98022.47;;;8.69;54.18
58467;BME280;44255;49.244;7.726;2023-02-23T18:45:21;98017.00;;;8.70;54.00
58467;BME280;44255;49.244;7.726;2023-02-23T18:47:47;98013.81;;;8.78;53.80
58467;BME280;44255;49.244;7.726;2023-02-23T18:50:13;98015.28;;;8.69;54.31